Terminal Aerodrome Forecast
Issued by NWS Topeka, KS

Home | Current Version | Previous Version | Graphics & Text | Print | Product List | Glossary On
Versions: 1 2 3 4 5 6 7 8 9 10 11 12 13 14 15 16 17 18
285
FTUS43 KTOP 290520
TAFTOP
TAF
KTOP 290520Z 2906/3006 22002KT P6SM SKC
     FM290900 20002KT 6SM MIFG BR SKC
     FM291300 20007KT P6SM SCT250
     FM292000 16007KT P6SM SCT150=

USA.gov is the U.S. government's official web portal to all federal, state and local government web resources and services.